sensor_id;sensor_type;location;lat;lon;timestamp;P1;durP1;ratioP1;P2;durP2;ratioP2
42600;SDS011;28229;48.856;9.088;2023-08-24T00:01:01;7.47;;;6.60;;
42600;SDS011;28229;48.856;9.088;2023-08-24T00:03:27;7.37;;;6.67;;
42600;SDS011;28229;48.856;9.088;2023-08-24T00:05:54;7.80;;;7.00;;
42600;SDS011;28229;48.856;9.088;2023-08-24T00:08:20;7.17;;;6.47;;
42600;SDS011;28229;48.856;9.088;2023-08-24T00:10:46;7.93;;;7.10;;
42600;SDS011;28229;48.856;9.088;2023-08-24T00:13:13;7.83;;;7.13;;
42600;SDS011;28229;48.856;9.088;2023-08-24T00:15:40;7.67;;;6.97;;
42600;SDS011;28229;48.856;9.088;2023-08-24T00:18:06;8.10;;;7.30;;
42600;SDS011;28229;48.856;9.088;2023-08-24T00:20:33;7.53;;;6.83;;
42600;SDS011;28229;48.856;9.088;2023-08-24T00:22:59;7.87;;;7.20;;
42600;SDS011;28229;48.856;9.088;2023-08-24T00:25:25;7.50;;;6.77;;
42600;SDS011;28229;48.856;9.088;2023-08-24T00:27:54;7.93;;;7.03;;
42600;SDS011;28229;48.856;9.088;2023-08-24T00:30:20;8.00;;;6.80;;
42600;SDS011;28229;48.856;9.088;2023-08-24T00:32:47;6.90;;;6.30;;
42600;SDS011;28229;48.856;9.088;2023-08-24T00:35:13;7.23;;;6.50;;
42600;SDS011;28229;48.856;9.088;2023-08-24T00:37:39;7.60;;;7.00;;
42600;SDS011;28229;48.856;9.088;2023-08-24T00:40:06;7.40;;;6.80;;
42600;SDS011;28229;48.856;9.088;2023-08-24T00:42:40;8.07;;;7.33;;
42600;SDS011;28229;48.856;9.088;2023-08-24T00:45:07;7.47;;;6.87;;
42600;SDS011;28229;48.856;9.088;2023-08-24T00:47:39;7.07;;;6.47;;
42600;SDS011;28229;48.856;9.088;2023-08-24T00:50:07;7.43;;;6.83;;
42600;SDS011;28229;48.856;9.088;2023-08-24T00:52:34;7.50;;;6.90;;
42600;SDS011;28229;48.856;9.088;2023-08-24T00:55:04;7.37;;;6.67;;
42600;SDS011;28229;48.856;9.088;2023-08-24T00:57:31;7.70;;;7.00;;
42600;SDS011;28229;48.856;9.088;2023-08-24T01:00:01;7.50;;;6.70;;
42600;SDS011;28229;48.856;9.088;2023-08-24T01:02:31;7.73;;;6.97;;
42600;SDS011;28229;48.856;9.088;2023-08-24T01:04:58;8.03;;;6.90;;
42600;SDS011;28229;48.856;9.088;2023-08-24T01:07:25;7.87;;;6.90;;
42600;SDS011;28229;48.856;9.088;2023-08-24T01:09:51;7.70;;;6.27;;
42600;SDS011;28229;48.856;9.088;2023-08-24T01:15:32;6.97;;;6.27;;
42600;SDS011;28229;48.856;9.088;2023-08-24T01:18:08;7.40;;;6.80;;
42600;SDS011;28229;48.856;9.088;2023-08-24T01:20:40;8.97;;;7.40;;
42600;SDS011;28229;48.856;9.088;2023-08-24T01:25:59;7.47;;;6.87;;
42600;SDS011;28229;48.856;9.088;2023-08-24T01:28:29;7.80;;;7.10;;
42600;SDS011;28229;48.856;9.088;2023-08-24T01:30:57;7.50;;;6.80;;
42600;SDS011;28229;48.856;9.088;2023-08-24T01:33:23;7.97;;;7.17;;
42600;SDS011;28229;48.856;9.088;2023-08-24T01:35:53;7.67;;;6.97;;
42600;SDS011;28229;48.856;9.088;2023-08-24T01:38:19;7.43;;;6.83;;
42600;SDS011;28229;48.856;9.088;2023-08-24T01:40:48;7.20;;;6.60;;
42600;SDS011;28229;48.856;9.088;2023-08-24T01:43:33;7.20;;;6.50;;
42600;SDS011;28229;48.856;9.088;2023-08-24T01:46:05;7.50;;;6.80;;
42600;SDS011;28229;48.856;9.088;2023-08-24T01:48:33;7.63;;;7.00;;
42600;SDS011;28229;48.856;9.088;2023-08-24T01:51:00;7.97;;;7.27;;
42600;SDS011;28229;48.856;9.088;2023-08-24T01:53:30;8.13;;;7.43;;
42600;SDS011;28229;48.856;9.088;2023-08-24T01:55:57;8.73;;;7.10;;
42600;SDS011;28229;48.856;9.088;2023-08-24T01:58:25;8.63;;;7.63;;
42600;SDS011;28229;48.856;9.088;2023-08-24T02:00:52;8.00;;;7.27;;
42600;SDS011;28229;48.856;9.088;2023-08-24T02:03:18;7.80;;;7.03;;
42600;SDS011;28229;48.856;9.088;2023-08-24T02:05:44;7.80;;;7.10;;
42600;SDS011;28229;48.856;9.088;2023-08-24T02:08:10;8.07;;;7.37;;
42600;SDS011;28229;48.856;9.088;2023-08-24T02:10:36;9.30;;;7.83;;
42600;SDS011;28229;48.856;9.088;2023-08-24T02:13:04;8.53;;;7.70;;
42600;SDS011;28229;48.856;9.088;2023-08-24T02:15:30;8.27;;;7.57;;
42600;SDS011;28229;48.856;9.088;2023-08-24T02:17:56;8.67;;;7.40;;
42600;SDS011;28229;48.856;9.088;2023-08-24T02:20:22;8.57;;;7.77;;
42600;SDS011;28229;48.856;9.088;2023-08-24T02:22:48;9.43;;;8.40;;
42600;SDS011;28229;48.856;9.088;2023-08-24T02:25:14;9.10;;;8.30;;
42600;SDS011;28229;48.856;9.088;2023-08-24T02:27:41;8.97;;;8.23;;
42600;SDS011;28229;48.856;9.088;2023-08-24T02:30:07;8.60;;;7.90;;
42600;SDS011;28229;48.856;9.088;2023-08-24T02:32:33;9.07;;;8.27;;
42600;SDS011;28229;48.856;9.088;2023-08-24T02:34:59;8.53;;;7.83;;
42600;SDS011;28229;48.856;9.088;2023-08-24T02:37:26;7.83;;;7.13;;
42600;SDS011;28229;48.856;9.088;2023-08-24T02:39:52;8.67;;;7.87;;
42600;SDS011;28229;48.856;9.088;2023-08-24T02:42:18;10.33;;;8.83;;
42600;SDS011;28229;48.856;9.088;2023-08-24T02:44:44;8.70;;;7.80;;
42600;SDS011;28229;48.856;9.088;2023-08-24T02:47:11;9.00;;;8.10;;
42600;SDS011;28229;48.856;9.088;2023-08-24T02:49:37;9.67;;;8.70;;
42600;SDS011;28229;48.856;9.088;2023-08-24T02:52:04;9.07;;;8.27;;
42600;SDS011;28229;48.856;9.088;2023-08-24T02:54:30;9.37;;;8.43;;
42600;SDS011;28229;48.856;9.088;2023-08-24T02:56:56;9.47;;;8.57;;
42600;SDS011;28229;48.856;9.088;2023-08-24T02:59:23;9.20;;;8.40;;
42600;SDS011;28229;48.856;9.088;2023-08-24T03:01:49;9.87;;;8.87;;
42600;SDS011;28229;48.856;9.088;2023-08-24T03:04:15;9.93;;;8.67;;
42600;SDS011;28229;48.856;9.088;2023-08-24T03:06:43;10.33;;;9.33;;
42600;SDS011;28229;48.856;9.088;2023-08-24T03:09:09;9.90;;;8.90;;
42600;SDS011;28229;48.856;9.088;2023-08-24T03:11:36;10.07;;;9.10;;
42600;SDS011;28229;48.856;9.088;2023-08-24T03:14:02;10.07;;;9.27;;
42600;SDS011;28229;48.856;9.088;2023-08-24T03:16:28;9.73;;;8.77;;
42600;SDS011;28229;48.856;9.088;2023-08-24T03:18:54;9.63;;;8.73;;
42600;SDS011;28229;48.856;9.088;2023-08-24T03:21:20;8.10;;;7.30;;
42600;SDS011;28229;48.856;9.088;2023-08-24T03:23:47;9.10;;;8.17;;
42600;SDS011;28229;48.856;9.088;2023-08-24T03:26:13;8.20;;;7.50;;
42600;SDS011;28229;48.856;9.088;2023-08-24T03:28:39;9.33;;;7.83;;
42600;SDS011;28229;48.856;9.088;2023-08-24T03:31:06;9.73;;;8.80;;
42600;SDS011;28229;48.856;9.088;2023-08-24T03:33:33;9.50;;;8.67;;
42600;SDS011;28229;48.856;9.088;2023-08-24T03:36:01;8.73;;;7.93;;
42600;SDS011;28229;48.856;9.088;2023-08-24T03:38:29;9.10;;;8.20;;
42600;SDS011;28229;48.856;9.088;2023-08-24T03:41:03;9.33;;;8.43;;
42600;SDS011;28229;48.856;9.088;2023-08-24T03:43:33;8.50;;;7.73;;
42600;SDS011;28229;48.856;9.088;2023-08-24T03:46:00;8.97;;;8.17;;
42600;SDS011;28229;48.856;9.088;2023-08-24T03:48:27;9.17;;;8.30;;
42600;SDS011;28229;48.856;9.088;2023-08-24T03:50:54;8.13;;;7.33;;
42600;SDS011;28229;48.856;9.088;2023-08-24T03:53:21;8.50;;;7.70;;
42600;SDS011;28229;48.856;9.088;2023-08-24T03:55:49;11.80;;;9.03;;
42600;SDS011;28229;48.856;9.088;2023-08-24T03:58:19;10.33;;;9.37;;
42600;SDS011;28229;48.856;9.088;2023-08-24T04:00:45;9.97;;;9.10;;
42600;SDS011;28229;48.856;9.088;2023-08-24T04:03:11;11.23;;;8.67;;
42600;SDS011;28229;48.856;9.088;2023-08-24T04:05:38;9.23;;;8.40;;
42600;SDS011;28229;48.856;9.088;2023-08-24T04:08:05;9.90;;;8.67;;
42600;SDS011;28229;48.856;9.088;2023-08-24T04:10:31;10.50;;;9.20;;
42600;SDS011;28229;48.856;9.088;2023-08-24T04:12:58;9.33;;;8.27;;
42600;SDS011;28229;48.856;9.088;2023-08-24T04:15:24;9.70;;;8.80;;
42600;SDS011;28229;48.856;9.088;2023-08-24T04:17:51;9.73;;;9.00;;
42600;SDS011;28229;48.856;9.088;2023-08-24T04:20:17;9.40;;;8.60;;
42600;SDS011;28229;48.856;9.088;2023-08-24T04:22:43;9.30;;;8.50;;
42600;SDS011;28229;48.856;9.088;2023-08-24T04:25:10;16.13;;;14.50;;
42600;SDS011;28229;48.856;9.088;2023-08-24T04:27:38;37.43;;;31.30;;
42600;SDS011;28229;48.856;9.088;2023-08-24T04:30:04;41.60;;;35.30;;
42600;SDS011;28229;48.856;9.088;2023-08-24T04:32:34;22.63;;;16.53;;
42600;SDS011;28229;48.856;9.088;2023-08-24T04:35:00;16.57;;;14.93;;
42600;SDS011;28229;48.856;9.088;2023-08-24T04:37:26;15.97;;;14.37;;
42600;SDS011;28229;48.856;9.088;2023-08-24T04:40:05;17.27;;;14.63;;
42600;SDS011;28229;48.856;9.088;2023-08-24T04:42:33;20.27;;;18.17;;
42600;SDS011;28229;48.856;9.088;2023-08-24T04:45:00;23.50;;;20.30;;
42600;SDS011;28229;48.856;9.088;2023-08-24T04:47:26;20.87;;;18.77;;
42600;SDS011;28229;48.856;9.088;2023-08-24T04:49:52;20.23;;;18.00;;
42600;SDS011;28229;48.856;9.088;2023-08-24T04:52:18;17.30;;;15.67;;
42600;SDS011;28229;48.856;9.088;2023-08-24T04:54:44;14.67;;;13.17;;
42600;SDS011;28229;48.856;9.088;2023-08-24T04:57:10;13.10;;;11.70;;
42600;SDS011;28229;48.856;9.088;2023-08-24T04:59:39;13.47;;;10.17;;
42600;SDS011;28229;48.856;9.088;2023-08-24T05:02:06;11.17;;;9.70;;
42600;SDS011;28229;48.856;9.088;2023-08-24T05:04:32;11.43;;;10.33;;
42600;SDS011;28229;48.856;9.088;2023-08-24T05:06:58;10.77;;;9.77;;
42600;SDS011;28229;48.856;9.088;2023-08-24T05:09:24;13.40;;;12.10;;
42600;SDS011;28229;48.856;9.088;2023-08-24T05:11:50;10.83;;;9.87;;
42600;SDS011;28229;48.856;9.088;2023-08-24T05:14:16;11.90;;;9.80;;
42600;SDS011;28229;48.856;9.088;2023-08-24T05:16:42;10.97;;;8.93;;
42600;SDS011;28229;48.856;9.088;2023-08-24T05:19:09;10.47;;;9.33;;
42600;SDS011;28229;48.856;9.088;2023-08-24T05:21:35;10.80;;;9.70;;
42600;SDS011;28229;48.856;9.088;2023-08-24T05:24:01;9.63;;;8.83;;
42600;SDS011;28229;48.856;9.088;2023-08-24T05:26:27;10.33;;;9.23;;
42600;SDS011;28229;48.856;9.088;2023-08-24T05:28:53;10.73;;;9.53;;
42600;SDS011;28229;48.856;9.088;2023-08-24T05:31:20;10.37;;;9.27;;
42600;SDS011;28229;48.856;9.088;2023-08-24T05:33:46;10.27;;;9.27;;
42600;SDS011;28229;48.856;9.088;2023-08-24T05:36:12;10.73;;;9.67;;
42600;SDS011;28229;48.856;9.088;2023-08-24T05:38:38;10.50;;;9.67;;
42600;SDS011;28229;48.856;9.088;2023-08-24T05:41:04;10.57;;;9.57;;
42600;SDS011;28229;48.856;9.088;2023-08-24T05:43:30;10.93;;;9.67;;
42600;SDS011;28229;48.856;9.088;2023-08-24T05:45:56;11.60;;;10.50;;
42600;SDS011;28229;48.856;9.088;2023-08-24T05:48:22;11.43;;;10.30;;
42600;SDS011;28229;48.856;9.088;2023-08-24T05:50:49;10.40;;;9.40;;
42600;SDS011;28229;48.856;9.088;2023-08-24T05:53:15;10.37;;;9.10;;
42600;SDS011;28229;48.856;9.088;2023-08-24T05:55:41;10.57;;;9.17;;
42600;SDS011;28229;48.856;9.088;2023-08-24T05:58:07;10.27;;;9.37;;
42600;SDS011;28229;48.856;9.088;2023-08-24T06:00:34;10.03;;;8.73;;
42600;SDS011;28229;48.856;9.088;2023-08-24T06:03:00;9.83;;;8.73;;
42600;SDS011;28229;48.856;9.088;2023-08-24T06:05:26;9.90;;;8.93;;
42600;SDS011;28229;48.856;9.088;2023-08-24T06:07:53;10.10;;;8.93;;
42600;SDS011;28229;48.856;9.088;2023-08-24T06:10:19;9.17;;;8.37;;
42600;SDS011;28229;48.856;9.088;2023-08-24T06:12:46;9.83;;;8.83;;
42600;SDS011;28229;48.856;9.088;2023-08-24T06:15:12;9.13;;;8.23;;
42600;SDS011;28229;48.856;9.088;2023-08-24T06:17:39;10.03;;;8.07;;
42600;SDS011;28229;48.856;9.088;2023-08-24T06:20:05;8.53;;;7.83;;
42600;SDS011;28229;48.856;9.088;2023-08-24T06:22:36;10.23;;;9.23;;
42600;SDS011;28229;48.856;9.088;2023-08-24T06:25:02;9.77;;;8.77;;
42600;SDS011;28229;48.856;9.088;2023-08-24T06:27:32;10.13;;;9.23;;
42600;SDS011;28229;48.856;9.088;2023-08-24T06:29:58;12.50;;;9.50;;
42600;SDS011;28229;48.856;9.088;2023-08-24T06:32:24;11.30;;;9.17;;
42600;SDS011;28229;48.856;9.088;2023-08-24T06:35:00;11.37;;;9.57;;
42600;SDS011;28229;48.856;9.088;2023-08-24T06:37:27;9.77;;;8.83;;
42600;SDS011;28229;48.856;9.088;2023-08-24T06:39:53;9.83;;;8.83;;
42600;SDS011;28229;48.856;9.088;2023-08-24T06:42:19;9.30;;;8.40;;
42600;SDS011;28229;48.856;9.088;2023-08-24T06:44:46;9.10;;;8.20;;
42600;SDS011;28229;48.856;9.088;2023-08-24T06:47:18;9.73;;;8.73;;
42600;SDS011;28229;48.856;9.088;2023-08-24T06:49:44;9.97;;;9.07;;
42600;SDS011;28229;48.856;9.088;2023-08-24T06:52:11;10.00;;;9.00;;
42600;SDS011;28229;48.856;9.088;2023-08-24T06:54:37;9.80;;;8.90;;
42600;SDS011;28229;48.856;9.088;2023-08-24T06:57:03;9.87;;;8.90;;
42600;SDS011;28229;48.856;9.088;2023-08-24T06:59:29;12.80;;;9.17;;
42600;SDS011;28229;48.856;9.088;2023-08-24T07:01:56;12.33;;;9.23;;
42600;SDS011;28229;48.856;9.088;2023-08-24T07:04:24;10.17;;;8.67;;
42600;SDS011;28229;48.856;9.088;2023-08-24T07:06:51;12.03;;;9.17;;
42600;SDS011;28229;48.856;9.088;2023-08-24T07:09:18;11.00;;;9.00;;
42600;SDS011;28229;48.856;9.088;2023-08-24T07:11:45;9.23;;;8.33;;
42600;SDS011;28229;48.856;9.088;2023-08-24T07:14:11;12.17;;;8.70;;
42600;SDS011;28229;48.856;9.088;2023-08-24T07:16:37;9.97;;;8.90;;
42600;SDS011;28229;48.856;9.088;2023-08-24T07:19:03;10.17;;;8.57;;
42600;SDS011;28229;48.856;9.088;2023-08-24T07:21:31;8.87;;;7.97;;
42600;SDS011;28229;48.856;9.088;2023-08-24T07:23:57;10.33;;;8.70;;
42600;SDS011;28229;48.856;9.088;2023-08-24T07:26:23;11.30;;;8.17;;
42600;SDS011;28229;48.856;9.088;2023-08-24T07:28:51;12.27;;;8.10;;
42600;SDS011;28229;48.856;9.088;2023-08-24T07:31:17;9.77;;;7.77;;
42600;SDS011;28229;48.856;9.088;2023-08-24T07:33:44;8.67;;;7.87;;
42600;SDS011;28229;48.856;9.088;2023-08-24T07:36:10;9.80;;;7.97;;
42600;SDS011;28229;48.856;9.088;2023-08-24T07:38:37;9.20;;;8.30;;
42600;SDS011;28229;48.856;9.088;2023-08-24T07:41:03;9.57;;;8.67;;
42600;SDS011;28229;48.856;9.088;2023-08-24T07:43:29;8.10;;;7.30;;
42600;SDS011;28229;48.856;9.088;2023-08-24T07:45:56;8.47;;;7.50;;
42600;SDS011;28229;48.856;9.088;2023-08-24T07:48:22;8.73;;;7.80;;
42600;SDS011;28229;48.856;9.088;2023-08-24T07:50:48;8.13;;;7.33;;
42600;SDS011;28229;48.856;9.088;2023-08-24T07:53:14;9.83;;;7.50;;
42600;SDS011;28229;48.856;9.088;2023-08-24T07:55:41;7.37;;;6.77;;
42600;SDS011;28229;48.856;9.088;2023-08-24T07:58:08;7.83;;;7.13;;
42600;SDS011;28229;48.856;9.088;2023-08-24T08:00:35;7.83;;;6.90;;
42600;SDS011;28229;48.856;9.088;2023-08-24T08:03:01;7.80;;;7.10;;
42600;SDS011;28229;48.856;9.088;2023-08-24T08:05:27;7.83;;;6.30;;
42600;SDS011;28229;48.856;9.088;2023-08-24T08:07:53;7.57;;;6.90;;
42600;SDS011;28229;48.856;9.088;2023-08-24T08:10:22;7.10;;;6.40;;
42600;SDS011;28229;48.856;9.088;2023-08-24T08:12:48;6.97;;;6.38;;
42600;SDS011;28229;48.856;9.088;2023-08-24T08:15:14;6.82;;;6.20;;
42600;SDS011;28229;48.856;9.088;2023-08-24T08:17:40;6.78;;;6.00;;
42600;SDS011;28229;48.856;9.088;2023-08-24T08:20:08;5.90;;;5.40;;
42600;SDS011;28229;48.856;9.088;2023-08-24T08:22:35;7.35;;;5.05;;
42600;SDS011;28229;48.856;9.088;2023-08-24T08:25:05;6.53;;;4.65;;
42600;SDS011;28229;48.856;9.088;2023-08-24T08:27:32;10.15;;;5.28;;
42600;SDS011;28229;48.856;9.088;2023-08-24T08:29:59;6.93;;;5.03;;
42600;SDS011;28229;48.856;9.088;2023-08-24T08:32:25;6.03;;;5.30;;
42600;SDS011;28229;48.856;9.088;2023-08-24T08:34:56;7.10;;;5.13;;
42600;SDS011;28229;48.856;9.088;2023-08-24T08:37:27;7.07;;;5.30;;
42600;SDS011;28229;48.856;9.088;2023-08-24T08:39:53;5.75;;;5.22;;
42600;SDS011;28229;48.856;9.088;2023-08-24T08:42:19;5.53;;;5.03;;
42600;SDS011;28229;48.856;9.088;2023-08-24T08:44:46;6.57;;;4.70;;
42600;SDS011;28229;48.856;9.088;2023-08-24T08:47:13;5.38;;;4.88;;
42600;SDS011;28229;48.856;9.088;2023-08-24T08:49:39;6.15;;;5.03;;
42600;SDS011;28229;48.856;9.088;2023-08-24T08:52:11;6.40;;;5.38;;
42600;SDS011;28229;48.856;9.088;2023-08-24T08:54:38;6.22;;;4.65;;
42600;SDS011;28229;48.856;9.088;2023-08-24T08:57:04;5.75;;;4.90;;
42600;SDS011;28229;48.856;9.088;2023-08-24T08:59:30;4.95;;;4.45;;
42600;SDS011;28229;48.856;9.088;2023-08-24T09:01:57;5.38;;;4.50;;
42600;SDS011;28229;48.856;9.088;2023-08-24T09:04:27;6.35;;;4.22;;
42600;SDS011;28229;48.856;9.088;2023-08-24T09:06:55;4.43;;;4.03;;
42600;SDS011;28229;48.856;9.088;2023-08-24T09:09:22;5.70;;;3.80;;
42600;SDS011;28229;48.856;9.088;2023-08-24T09:11:51;6.07;;;4.63;;
42600;SDS011;28229;48.856;9.088;2023-08-24T09:14:17;4.43;;;4.03;;
42600;SDS011;28229;48.856;9.088;2023-08-24T09:16:43;5.30;;;4.40;;
42600;SDS011;28229;48.856;9.088;2023-08-24T09:19:10;5.45;;;4.07;;
42600;SDS011;28229;48.856;9.088;2023-08-24T09:21:37;4.55;;;4.07;;
42600;SDS011;28229;48.856;9.088;2023-08-24T09:24:05;5.07;;;4.00;;
42600;SDS011;28229;48.856;9.088;2023-08-24T09:26:32;4.38;;;3.95;;
42600;SDS011;28229;48.856;9.088;2023-08-24T09:29:05;4.35;;;3.97;;
42600;SDS011;28229;48.856;9.088;2023-08-24T09:31:40;4.45;;;4.05;;
42600;SDS011;28229;48.856;9.088;2023-08-24T09:34:09;4.93;;;4.07;;
42600;SDS011;28229;48.856;9.088;2023-08-24T09:36:36;4.50;;;3.95;;
42600;SDS011;28229;48.856;9.088;2023-08-24T09:39:03;4.10;;;3.80;;
42600;SDS011;28229;48.856;9.088;2023-08-24T09:41:44;5.28;;;3.75;;
42600;SDS011;28229;48.856;9.088;2023-08-24T09:44:12;5.85;;;4.00;;
42600;SDS011;28229;48.856;9.088;2023-08-24T09:46:39;4.82;;;4.00;;
42600;SDS011;28229;48.856;9.088;2023-08-24T09:49:07;5.63;;;4.20;;
42600;SDS011;28229;48.856;9.088;2023-08-24T09:51:35;6.10;;;3.97;;
42600;SDS011;28229;48.856;9.088;2023-08-24T09:54:04;4.80;;;3.90;;
42600;SDS011;28229;48.856;9.088;2023-08-24T09:56:35;4.57;;;3.95;;
42600;SDS011;28229;48.856;9.088;2023-08-24T09:59:10;4.88;;;3.90;;
42600;SDS011;28229;48.856;9.088;2023-08-24T10:01:44;8.35;;;4.88;;
42600;SDS011;28229;48.856;9.088;2023-08-24T10:04:15;4.90;;;4.40;;
42600;SDS011;28229;48.856;9.088;2023-08-24T10:06:56;6.50;;;4.00;;
42600;SDS011;28229;48.856;9.088;2023-08-24T10:09:31;5.75;;;3.85;;
42600;SDS011;28229;48.856;9.088;2023-08-24T10:12:04;6.40;;;4.10;;
42600;SDS011;28229;48.856;9.088;2023-08-24T10:14:32;6.38;;;4.35;;
42600;SDS011;28229;48.856;9.088;2023-08-24T10:17:22;6.15;;;3.85;;
42600;SDS011;28229;48.856;9.088;2023-08-24T10:19:50;5.82;;;3.85;;
42600;SDS011;28229;48.856;9.088;2023-08-24T10:22:18;5.75;;;4.10;;
42600;SDS011;28229;48.856;9.088;2023-08-24T10:24:46;11.52;;;5.00;;
42600;SDS011;28229;48.856;9.088;2023-08-24T10:27:13;6.88;;;4.40;;
42600;SDS011;28229;48.856;9.088;2023-08-24T10:29:40;11.93;;;4.95;;
42600;SDS011;28229;48.856;9.088;2023-08-24T10:32:06;8.73;;;4.32;;
42600;SDS011;28229;48.856;9.088;2023-08-24T10:34:34;5.50;;;4.28;;
42600;SDS011;28229;48.856;9.088;2023-08-24T10:37:07;5.97;;;4.10;;
42600;SDS011;28229;48.856;9.088;2023-08-24T10:39:38;4.82;;;4.30;;
42600;SDS011;28229;48.856;9.088;2023-08-24T10:42:11;4.57;;;4.18;;
42600;SDS011;28229;48.856;9.088;2023-08-24T10:44:39;5.80;;;4.00;;
42600;SDS011;28229;48.856;9.088;2023-08-24T10:47:13;6.00;;;4.45;;
42600;SDS011;28229;48.856;9.088;2023-08-24T10:49:45;4.85;;;4.45;;
42600;SDS011;28229;48.856;9.088;2023-08-24T10:55:02;6.35;;;4.43;;
42600;SDS011;28229;48.856;9.088;2023-08-24T10:57:35;7.50;;;4.55;;
42600;SDS011;28229;48.856;9.088;2023-08-24T11:00:08;5.03;;;4.50;;
42600;SDS011;28229;48.856;9.088;2023-08-24T11:05:15;5.30;;;4.32;;
42600;SDS011;28229;48.856;9.088;2023-08-24T11:07:49;5.15;;;4.57;;
42600;SDS011;28229;48.856;9.088;2023-08-24T11:10:17;4.75;;;4.30;;
42600;SDS011;28229;48.856;9.088;2023-08-24T11:15:32;5.43;;;4.55;;
42600;SDS011;28229;48.856;9.088;2023-08-24T11:20:49;5.10;;;4.53;;
42600;SDS011;28229;48.856;9.088;2023-08-24T11:23:17;4.97;;;4.43;;
42600;SDS011;28229;48.856;9.088;2023-08-24T11:25:45;6.05;;;4.53;;
42600;SDS011;28229;48.856;9.088;2023-08-24T11:28:16;6.10;;;4.93;;
42600;SDS011;28229;48.856;9.088;2023-08-24T11:30:46;5.15;;;4.65;;
42600;SDS011;28229;48.856;9.088;2023-08-24T11:33:12;5.05;;;4.53;;
42600;SDS011;28229;48.856;9.088;2023-08-24T11:35:41;4.80;;;4.40;;
42600;SDS011;28229;48.856;9.088;2023-08-24T11:38:09;5.85;;;4.63;;
42600;SDS011;28229;48.856;9.088;2023-08-24T11:40:35;5.05;;;4.68;;
42600;SDS011;28229;48.856;9.088;2023-08-24T11:43:02;6.97;;;6.13;;
42600;SDS011;28229;48.856;9.088;2023-08-24T11:45:31;5.68;;;4.82;;
42600;SDS011;28229;48.856;9.088;2023-08-24T11:47:59;5.20;;;4.80;;
42600;SDS011;28229;48.856;9.088;2023-08-24T11:50:30;4.93;;;4.53;;
42600;SDS011;28229;48.856;9.088;2023-08-24T11:52:58;5.50;;;4.80;;
42600;SDS011;28229;48.856;9.088;2023-08-24T11:55:27;6.00;;;5.22;;
42600;SDS011;28229;48.856;9.088;2023-08-24T11:57:53;9.13;;;5.10;;
42600;SDS011;28229;48.856;9.088;2023-08-24T12:00:20;6.45;;;5.03;;
42600;SDS011;28229;48.856;9.088;2023-08-24T12:02:47;5.05;;;4.65;;
42600;SDS011;28229;48.856;9.088;2023-08-24T12:05:24;6.03;;;4.93;;
42600;SDS011;28229;48.856;9.088;2023-08-24T12:07:52;6.13;;;5.13;;
42600;SDS011;28229;48.856;9.088;2023-08-24T12:10:20;5.90;;;4.55;;
42600;SDS011;28229;48.856;9.088;2023-08-24T12:12:47;6.53;;;5.10;;
42600;SDS011;28229;48.856;9.088;2023-08-24T12:15:19;5.40;;;4.90;;
42600;SDS011;28229;48.856;9.088;2023-08-24T12:17:47;5.95;;;5.05;;
42600;SDS011;28229;48.856;9.088;2023-08-24T12:20:20;6.00;;;5.40;;
42600;SDS011;28229;48.856;9.088;2023-08-24T12:22:53;7.72;;;4.85;;
42600;SDS011;28229;48.856;9.088;2023-08-24T12:25:22;8.18;;;5.25;;
42600;SDS011;28229;48.856;9.088;2023-08-24T12:27:50;5.95;;;4.85;;
42600;SDS011;28229;48.856;9.088;2023-08-24T12:30:51;5.80;;;5.30;;
42600;SDS011;28229;48.856;9.088;2023-08-24T12:33:24;7.40;;;5.32;;
42600;SDS011;28229;48.856;9.088;2023-08-24T12:35:52;6.53;;;5.50;;
42600;SDS011;28229;48.856;9.088;2023-08-24T12:38:19;7.63;;;5.53;;
42600;SDS011;28229;48.856;9.088;2023-08-24T12:40:45;7.00;;;5.43;;
42600;SDS011;28229;48.856;9.088;2023-08-24T12:43:12;6.60;;;5.40;;
42600;SDS011;28229;48.856;9.088;2023-08-24T12:45:38;7.88;;;5.32;;
42600;SDS011;28229;48.856;9.088;2023-08-24T12:48:05;6.82;;;5.47;;
42600;SDS011;28229;48.856;9.088;2023-08-24T12:50:33;11.38;;;5.72;;
42600;SDS011;28229;48.856;9.088;2023-08-24T12:53:00;7.88;;;5.63;;
42600;SDS011;28229;48.856;9.088;2023-08-24T12:55:27;8.15;;;5.20;;
42600;SDS011;28229;48.856;9.088;2023-08-24T12:57:53;7.72;;;5.30;;
42600;SDS011;28229;48.856;9.088;2023-08-24T13:00:19;6.15;;;4.93;;
42600;SDS011;28229;48.856;9.088;2023-08-24T13:02:46;7.38;;;5.03;;
42600;SDS011;28229;48.856;9.088;2023-08-24T13:05:12;6.45;;;5.15;;
42600;SDS011;28229;48.856;9.088;2023-08-24T13:07:39;8.13;;;5.32;;
42600;SDS011;28229;48.856;9.088;2023-08-24T13:10:05;7.32;;;5.25;;
42600;SDS011;28229;48.856;9.088;2023-08-24T13:12:32;6.32;;;5.05;;
42600;SDS011;28229;48.856;9.088;2023-08-24T13:15:00;5.82;;;5.25;;
42600;SDS011;28229;48.856;9.088;2023-08-24T13:17:27;8.00;;;5.30;;
42600;SDS011;28229;48.856;9.088;2023-08-24T13:19:53;8.70;;;5.60;;
42600;SDS011;28229;48.856;9.088;2023-08-24T13:22:19;7.55;;;5.45;;
42600;SDS011;28229;48.856;9.088;2023-08-24T13:24:46;8.00;;;5.50;;
42600;SDS011;28229;48.856;9.088;2023-08-24T13:27:14;7.70;;;5.32;;
42600;SDS011;28229;48.856;9.088;2023-08-24T13:29:40;22.95;;;6.95;;
42600;SDS011;28229;48.856;9.088;2023-08-24T13:32:07;7.05;;;5.50;;
42600;SDS011;28229;48.856;9.088;2023-08-24T13:34:33;10.90;;;4.97;;
42600;SDS011;28229;48.856;9.088;2023-08-24T13:36:59;7.18;;;5.20;;
42600;SDS011;28229;48.856;9.088;2023-08-24T13:39:26;7.78;;;4.93;;
42600;SDS011;28229;48.856;9.088;2023-08-24T13:41:57;9.18;;;5.28;;
42600;SDS011;28229;48.856;9.088;2023-08-24T13:44:24;6.43;;;5.00;;
42600;SDS011;28229;48.856;9.088;2023-08-24T13:46:52;12.23;;;5.82;;
42600;SDS011;28229;48.856;9.088;2023-08-24T13:49:19;9.55;;;5.22;;
42600;SDS011;28229;48.856;9.088;2023-08-24T13:51:47;9.93;;;5.50;;
42600;SDS011;28229;48.856;9.088;2023-08-24T13:54:14;7.35;;;5.18;;
42600;SDS011;28229;48.856;9.088;2023-08-24T13:56:44;6.60;;;5.20;;
42600;SDS011;28229;48.856;9.088;2023-08-24T13:59:11;7.25;;;5.07;;
42600;SDS011;28229;48.856;9.088;2023-08-24T14:01:38;7.15;;;5.15;;
42600;SDS011;28229;48.856;9.088;2023-08-24T14:04:05;10.63;;;5.30;;
42600;SDS011;28229;48.856;9.088;2023-08-24T14:06:32;7.00;;;5.13;;
42600;SDS011;28229;48.856;9.088;2023-08-24T14:09:00;6.30;;;5.68;;
42600;SDS011;28229;48.856;9.088;2023-08-24T14:11:27;7.97;;;4.80;;
42600;SDS011;28229;48.856;9.088;2023-08-24T14:13:53;6.00;;;5.40;;
42600;SDS011;28229;48.856;9.088;2023-08-24T14:16:20;6.03;;;4.70;;
42600;SDS011;28229;48.856;9.088;2023-08-24T14:18:46;7.65;;;5.30;;
42600;SDS011;28229;48.856;9.088;2023-08-24T14:21:13;7.18;;;5.38;;
42600;SDS011;28229;48.856;9.088;2023-08-24T14:23:40;7.18;;;5.13;;
42600;SDS011;28229;48.856;9.088;2023-08-24T14:26:06;9.18;;;5.25;;
42600;SDS011;28229;48.856;9.088;2023-08-24T14:31:26;7.50;;;5.22;;
42600;SDS011;28229;48.856;9.088;2023-08-24T14:33:53;6.38;;;4.90;;
42600;SDS011;28229;48.856;9.088;2023-08-24T14:36:20;11.80;;;5.47;;
42600;SDS011;28229;48.856;9.088;2023-08-24T14:38:46;5.28;;;4.63;;
42600;SDS011;28229;48.856;9.088;2023-08-24T14:41:13;7.80;;;5.18;;
42600;SDS011;28229;48.856;9.088;2023-08-24T14:43:40;8.80;;;5.22;;
42600;SDS011;28229;48.856;9.088;2023-08-24T14:46:07;6.43;;;5.05;;
42600;SDS011;28229;48.856;9.088;2023-08-24T14:48:34;8.38;;;5.03;;
42600;SDS011;28229;48.856;9.088;2023-08-24T14:51:01;6.70;;;5.40;;
42600;SDS011;28229;48.856;9.088;2023-08-24T14:53:27;9.43;;;5.07;;
42600;SDS011;28229;48.856;9.088;2023-08-24T14:55:55;53.13;;;7.85;;
42600;SDS011;28229;48.856;9.088;2023-08-24T14:58:23;11.30;;;4.60;;
42600;SDS011;28229;48.856;9.088;2023-08-24T15:00:50;15.60;;;5.22;;
42600;SDS011;28229;48.856;9.088;2023-08-24T15:03:18;5.90;;;3.05;;
42600;SDS011;28229;48.856;9.088;2023-08-24T15:05:46;10.18;;;4.05;;